Time;durP1;ratioP1;P1;durP2;ratioP2;P2;SDS_P1;SDS_P2;PMS_P1;PMS_P2;Temp;Humidity;BMP_temperature;BMP_pressure;BME280_temperature;BME280_humidity;BME280_pressure;Samples;Min_cycle;Max_cycle;Signal;HPM_P1;HPM_P2
2023/03/02 00:00:58;;;;;;;410.05;227.88;;;4.60;99.90;;;;;;5028868;28;20602;-78
2023/03/02 00:03:27;;;;;;;404.25;225.63;;;4.60;99.90;;;;;;5030790;28;20386;-77
2023/03/02 00:05:56;;;;;;;446.23;243.30;;;4.60;99.90;;;;;;5030252;28;20037;-78
2023/03/02 00:08:25;;;;;;;358.75;206.88;;;4.60;99.90;;;;;;5030616;28;20045;-78
2023/03/02 00:10:53;;;;;;;374.67;204.40;;;4.50;99.90;;;;;;5030640;28;20045;-78
2023/03/02 00:13:21;;;;;;;348.25;188.88;;;4.60;99.90;;;;;;5029787;28;20674;-78
2023/03/02 00:15:49;;;;;;;310.48;170.48;;;4.60;99.90;;;;;;5030563;28;20387;-77
2023/03/02 00:18:16;;;;;;;366.35;200.77;;;4.60;99.90;;;;;;5030109;28;20490;-77
2023/03/02 00:20:43;;;;;;;343.17;185.15;;;4.60;99.90;;;;;;5028336;28;20486;-77
2023/03/02 00:23:11;;;;;;;287.73;158.15;;;4.60;99.90;;;;;;5030954;28;20045;-79
2023/03/02 00:25:40;;;;;;;288.73;160.80;;;4.60;99.90;;;;;;5030487;28;20061;-76
2023/03/02 00:28:07;;;;;;;259.63;146.05;;;4.60;99.90;;;;;;5030078;28;20041;-76
2023/03/02 00:30:35;;;;;;;256.13;143.63;;;4.50;99.90;;;;;;5028641;28;20103;-78
2023/03/02 00:33:02;;;;;;;261.35;146.25;;;4.50;99.90;;;;;;5030548;28;20041;-77
2023/03/02 00:35:30;;;;;;;242.15;134.88;;;4.50;99.90;;;;;;5030496;28;20043;-76
2023/03/02 00:37:58;;;;;;;236.35;131.98;;;4.50;99.90;;;;;;5029080;28;20049;-77
2023/03/02 00:40:25;;;;;;;245.10;132.30;;;4.60;99.90;;;;;;5029786;28;20069;-75
2023/03/02 00:42:54;;;;;;;251.35;141.05;;;4.60;99.90;;;;;;5028544;28;20080;-76
2023/03/02 00:45:22;;;;;;;278.08;153.95;;;4.50;99.90;;;;;;5029252;28;20072;-77
2023/03/02 00:47:49;;;;;;;352.70;193.90;;;4.50;99.90;;;;;;5028958;28;20061;-78
2023/03/02 00:50:17;;;;;;;357.23;199.90;;;4.50;99.90;;;;;;5029914;28;20048;-76
2023/03/02 00:52:45;;;;;;;391.45;214.10;;;4.60;99.90;;;;;;5028634;28;20081;-75
2023/03/02 00:55:12;;;;;;;392.30;217.75;;;4.60;99.90;;;;;;5028861;28;20409;-77
2023/03/02 00:57:40;;;;;;;380.77;202.65;;;4.40;99.90;;;;;;5028282;28;20483;-78
2023/03/02 01:00:10;;;;;;;420.65;230.00;;;4.40;99.90;;;;;;5029380;28;20052;-76
2023/03/02 01:02:42;;;;;;;408.90;222.63;;;4.40;99.90;;;;;;5029267;28;20045;-77
2023/03/02 01:05:12;;;;;;;406.92;220.85;;;4.50;99.90;;;;;;5028752;28;20054;-77
2023/03/02 01:07:39;;;;;;;415.33;216.23;;;4.60;99.90;;;;;;5029992;28;20057;-76
2023/03/02 01:10:08;;;;;;;406.33;213.90;;;4.70;99.90;;;;;;5031393;28;20045;-75
2023/03/02 01:12:36;;;;;;;384.63;204.23;;;4.70;99.90;;;;;;5044638;28;20493;-77
2023/03/02 01:15:04;;;;;;;386.35;205.80;;;4.80;99.90;;;;;;5028804;28;20041;-77
2023/03/02 01:17:33;;;;;;;383.50;197.95;;;4.80;99.90;;;;;;5029493;28;20152;-78
2023/03/02 01:20:01;;;;;;;356.67;188.80;;;4.80;99.90;;;;;;5030015;28;20136;-75
2023/03/02 01:22:28;;;;;;;335.40;176.25;;;4.90;99.90;;;;;;5027640;28;20068;-76
2023/03/02 01:24:56;;;;;;;322.70;171.27;;;4.90;99.90;;;;;;5028691;28;20148;-77
2023/03/02 01:27:23;;;;;;;317.85;165.57;;;4.90;99.90;;;;;;5029495;28;20049;-75
2023/03/02 01:29:51;;;;;;;311.67;160.65;;;4.90;99.90;;;;;;5034151;28;20105;-77
2023/03/02 01:32:19;;;;;;;306.15;156.40;;;5.00;99.90;;;;;;5039816;28;20046;-76
2023/03/02 01:34:50;;;;;;;300.23;152.05;;;5.00;99.90;;;;;;5030036;28;20046;-75
2023/03/02 01:37:19;;;;;;;300.73;150.98;;;5.00;99.90;;;;;;5027792;28;20042;-75
2023/03/02 01:39:47;;;;;;;291.95;146.68;;;5.00;99.90;;;;;;5029763;28;20097;-75
2023/03/02 01:42:14;;;;;;;297.85;148.60;;;4.90;1.00;;;;;;5028587;28;20041;-75
2023/03/02 01:44:44;;;;;;;298.27;148.45;;;4.90;1.00;;;;;;5031404;28;20551;-75
2023/03/02 01:47:18;;;;;;;327.15;162.80;;;4.90;99.90;;;;;;5041894;28;20041;-77
2023/03/02 01:49:58;;;;;;;314.17;154.75;;;4.90;99.90;;;;;;5032799;28;20111;-75
2023/03/02 01:52:31;;;;;;;308.05;152.68;;;4.90;90.50;;;;;;5033055;28;20081;-76
2023/03/02 01:55:01;;;;;;;296.48;150.57;;;4.90;99.90;;;;;;5030385;28;20093;-76
2023/03/02 01:57:33;;;;;;;304.23;149.35;;;4.90;99.90;;;;;;5028138;28;20041;-76
2023/03/02 02:00:09;;;;;;;286.63;141.57;;;4.90;99.90;;;;;;5027889;28;20092;-77
2023/03/02 02:02:40;;;;;;;293.90;142.95;;;4.90;99.90;;;;;;5029169;28;20042;-76
2023/03/02 02:05:11;;;;;;;274.73;139.38;;;4.90;1.00;;;;;;5027377;28;20095;-75
2023/03/02 02:07:40;;;;;;;279.75;143.13;;;4.90;1.00;;;;;;5027739;28;20053;-77
2023/03/02 02:10:10;;;;;;;281.05;149.27;;;4.90;1.00;;;;;;5027673;28;20052;-76
2023/03/02 02:12:37;;;;;;;275.42;148.80;;;4.90;97.80;;;;;;5026304;28;20075;-76
2023/03/02 02:15:06;;;;;;;277.65;150.02;;;5.00;99.90;;;;;;5026851;28;20111;-76
2023/03/02 02:17:34;;;;;;;284.27;154.30;;;5.00;99.90;;;;;;5028137;28;20509;-77
2023/03/02 02:20:08;;;;;;;269.88;144.45;;;5.00;4.00;;;;;;5028762;28;20061;-77
2023/03/02 02:22:47;;;;;;;272.90;141.27;;;5.10;1.00;;;;;;5027460;28;20614;-78
2023/03/02 02:25:26;;;;;;;267.98;138.73;;;5.10;1.00;;;;;;5028785;28;20534;-78
2023/03/02 02:27:56;;;;;;;264.73;131.45;;;5.10;1.00;;;;;;5027594;28;20041;-78
2023/03/02 02:30:24;;;;;;;270.23;133.00;;;5.10;99.90;;;;;;5026771;28;20041;-77
2023/03/02 02:32:54;;;;;;;281.85;135.32;;;5.00;99.90;;;;;;5027931;28;20042;-76
2023/03/02 02:35:27;;;;;;;275.52;135.48;;;4.90;99.90;;;;;;5029246;28;20047;-78
2023/03/02 02:37:59;;;;;;;279.83;133.80;;;4.80;99.90;;;;;;5027675;28;20445;-77
2023/03/02 02:40:45;;;;;;;263.85;130.23;;;4.80;1.00;;;;;;5027124;28;20054;-76
2023/03/02 02:43:20;;;;;;;280.58;134.27;;;4.80;1.00;;;;;;5028561;28;20045;-75
2023/03/02 02:45:50;;;;;;;273.98;132.82;;;4.80;1.00;;;;;;5032106;28;20085;-77
2023/03/02 02:48:21;;;;;;;264.50;129.02;;;4.70;1.00;;;;;;5032115;28;20060;-76
2023/03/02 02:50:52;;;;;;;256.85;123.78;;;4.70;93.60;;;;;;5032273;28;20045;-78
2023/03/02 02:53:22;;;;;;;248.55;120.82;;;4.80;99.90;;;;;;5033914;28;20045;-76
2023/03/02 02:55:53;;;;;;;244.90;119.65;;;4.80;99.90;;;;;;5033035;28;20068;-76
2023/03/02 02:58:30;;;;;;;236.65;115.97;;;4.80;99.90;;;;;;5032992;28;20037;-78
2023/03/02 03:00:59;;;;;;;254.80;126.20;;;4.80;99.90;;;;;;5034875;28;20049;-76
2023/03/02 03:03:31;;;;;;;278.80;136.93;;;4.80;99.90;;;;;;5046971;28;20412;-76
2023/03/02 03:06:04;;;;;;;276.50;139.87;;;4.80;99.90;;;;;;5032964;28;20053;-78
2023/03/02 03:08:58;;;;;;;269.40;132.80;;;4.90;99.90;;;;;;5038600;28;20645;-76
2023/03/02 03:11:39;;;;;;;263.95;132.35;;;4.80;1.00;;;;;;5030633;28;20038;-76
2023/03/02 03:14:10;;;;;;;277.17;137.73;;;4.80;18.80;;;;;;5031891;28;20033;-79
2023/03/02 03:16:40;;;;;;;284.45;142.15;;;4.80;1.00;;;;;;5032066;28;20481;-77
2023/03/02 03:19:15;;;;;;;293.88;143.00;;;4.80;1.00;;;;;;5031999;28;20046;-76
2023/03/02 03:21:43;;;;;;;286.48;138.48;;;4.70;99.90;;;;;;5033813;28;20073;-77
2023/03/02 03:24:10;;;;;;;295.90;143.10;;;4.80;1.00;;;;;;5031238;28;20057;-76
2023/03/02 03:26:38;;;;;;;301.73;144.25;;;4.70;1.00;;;;;;5030447;28;20041;-75
2023/03/02 03:29:06;;;;;;;328.38;151.45;;;4.80;1.00;;;;;;5031276;28;20129;-77
2023/03/02 03:31:35;;;;;;;269.90;140.32;;;4.70;1.00;;;;;;5033418;28;20552;-77
2023/03/02 03:34:04;;;;;;;298.88;142.20;;;4.70;1.00;;;;;;5035143;28;20045;-75
2023/03/02 03:36:36;;;;;;;292.55;143.65;;;4.80;43.30;;;;;;5039883;28;20092;-76
2023/03/02 03:39:05;;;;;;;305.50;152.18;;;4.80;55.80;;;;;;5031283;28;20049;-75
2023/03/02 03:41:33;;;;;;;305.80;147.20;;;4.80;99.90;;;;;;5032081;28;20611;-76
2023/03/02 03:44:01;;;;;;;299.95;144.43;;;4.70;1.00;;;;;;5031371;28;20140;-76
2023/03/02 03:46:33;;;;;;;288.25;138.52;;;4.70;99.90;;;;;;5047780;28;20049;-77
2023/03/02 03:49:02;;;;;;;284.23;137.80;;;4.70;99.90;;;;;;5043950;28;20113;-77
2023/03/02 03:51:33;;;;;;;269.60;133.93;;;4.60;1.00;;;;;;5049269;28;20040;-78
2023/03/02 03:54:01;;;;;;;271.70;133.60;;;4.60;99.90;;;;;;5051364;28;20041;-77
2023/03/02 03:56:43;;;;;;;275.30;133.35;;;4.70;1.00;;;;;;5067033;28;20046;-77
2023/03/02 03:59:13;;;;;;;286.08;137.25;;;4.60;1.00;;;;;;5051831;28;20075;-77
2023/03/02 04:01:51;;;;;;;261.92;132.80;;;4.60;1.00;;;;;;5050374;28;20052;-76
2023/03/02 04:04:23;;;;;;;286.65;141.10;;;4.60;99.90;;;;;;5034482;28;20057;-77
2023/03/02 04:06:51;;;;;;;309.27;157.15;;;4.50;1.00;;;;;;5047009;28;20136;-76
2023/03/02 04:09:21;;;;;;;314.65;164.20;;;4.50;1.00;;;;;;5030704;28;20049;-76
2023/03/02 04:11:51;;;;;;;364.13;186.65;;;4.50;1.00;;;;;;5033786;28;20434;-77
2023/03/02 04:14:20;;;;;;;366.00;193.20;;;4.50;99.90;;;;;;5031779;28;20056;-75
2023/03/02 04:16:48;;;;;;;359.88;184.85;;;4.50;8.10;;;;;;5047104;28;20041;-75
2023/03/02 04:19:16;;;;;;;329.40;170.05;;;4.50;41.00;;;;;;5031754;28;20091;-77
2023/03/02 04:21:50;;;;;;;353.83;170.32;;;4.50;99.90;;;;;;5035525;28;20169;-77
2023/03/02 04:24:20;;;;;;;368.10;184.02;;;4.60;99.90;;;;;;5040612;28;20063;-77
2023/03/02 04:26:48;;;;;;;402.50;195.52;;;4.50;1.00;;;;;;5042763;28;20049;-78
2023/03/02 04:29:18;;;;;;;403.38;193.32;;;4.50;1.00;;;;;;5035800;28;20055;-78
2023/03/02 04:31:47;;;;;;;502.63;226.10;;;4.40;1.00;;;;;;5032285;28;20042;-79
2023/03/02 04:34:16;;;;;;;451.48;197.35;;;4.40;67.30;;;;;;5030073;28;20053;-78
2023/03/02 04:36:45;;;;;;;385.80;176.10;;;4.40;99.90;;;;;;5029375;28;20057;-76
2023/03/02 04:39:17;;;;;;;403.92;183.18;;;4.40;99.90;;;;;;5029814;28;20555;-77
2023/03/02 04:41:49;;;;;;;344.30;160.90;;;4.40;99.90;;;;;;5031107;28;20312;-77
2023/03/02 04:44:18;;;;;;;337.77;154.48;;;4.40;99.90;;;;;;5033158;28;20042;-78
2023/03/02 04:46:46;;;;;;;356.08;156.68;;;4.40;99.90;;;;;;5040537;28;20041;-76
2023/03/02 04:49:14;;;;;;;333.13;148.93;;;4.40;99.90;;;;;;5041474;28;20041;-77
2023/03/02 04:51:44;;;;;;;352.80;159.65;;;4.50;99.90;;;;;;5040459;28;20080;-76
2023/03/02 04:54:17;;;;;;;354.10;157.80;;;4.40;99.90;;;;;;5042473;28;20046;-76
2023/03/02 04:56:47;;;;;;;384.75;163.15;;;4.40;99.90;;;;;;5037697;28;20347;-77
2023/03/02 04:59:14;;;;;;;355.08;157.07;;;4.40;99.90;;;;;;5029776;28;20046;-76
2023/03/02 05:01:43;;;;;;;384.50;167.07;;;4.40;99.90;;;;;;5031668;28;20057;-77
2023/03/02 05:04:11;;;;;;;407.38;179.52;;;4.40;99.90;;;;;;5028945;28;20057;-78
2023/03/02 05:06:39;;;;;;;380.75;171.77;;;4.40;99.90;;;;;;5030748;28;20042;-75
2023/03/02 05:09:06;;;;;;;406.48;181.80;;;4.30;99.90;;;;;;5029589;28;20144;-77
2023/03/02 05:11:35;;;;;;;373.38;168.50;;;4.10;99.90;;;;;;5030023;28;20064;-78
2023/03/02 05:14:07;;;;;;;356.67;164.80;;;4.10;99.90;;;;;;5031613;28;20504;-78
2023/03/02 05:16:38;;;;;;;327.48;159.73;;;4.00;99.90;;;;;;5031011;28;20072;-76
2023/03/02 05:19:08;;;;;;;317.45;164.35;;;3.90;99.90;;;;;;5029784;28;20091;-78
2023/03/02 05:21:36;;;;;;;345.15;172.35;;;3.90;99.90;;;;;;5027962;28;20056;-77
2023/03/02 05:24:04;;;;;;;315.80;160.40;;;4.00;99.90;;;;;;5030020;28;20128;-79
2023/03/02 05:26:32;;;;;;;311.00;160.35;;;4.00;99.90;;;;;;5029725;28;20589;-78
2023/03/02 05:29:01;;;;;;;308.77;160.70;;;4.00;99.90;;;;;;5029198;28;20140;-78
2023/03/02 05:31:31;;;;;;;281.02;151.90;;;4.00;99.90;;;;;;5028544;28;20121;-76
2023/03/02 05:33:58;;;;;;;295.80;153.13;;;4.10;99.90;;;;;;5028502;28;20095;-77
2023/03/02 05:36:26;;;;;;;275.02;142.73;;;4.20;99.90;;;;;;5028926;28;20104;-77
2023/03/02 05:38:53;;;;;;;266.90;138.93;;;4.10;99.90;;;;;;5030456;28;20069;-77
2023/03/02 05:41:21;;;;;;;264.58;135.77;;;4.20;99.90;;;;;;5030342;28;20140;-77
2023/03/02 05:43:49;;;;;;;272.67;139.60;;;4.10;99.90;;;;;;5031100;28;20601;-76
2023/03/02 05:46:18;;;;;;;262.30;132.75;;;4.20;99.90;;;;;;5034855;28;20450;-76
2023/03/02 05:48:46;;;;;;;285.00;139.82;;;4.20;99.90;;;;;;5032959;28;20132;-77
2023/03/02 05:51:14;;;;;;;323.17;156.45;;;4.30;99.90;;;;;;5029874;28;20133;-78
2023/03/02 05:53:41;;;;;;;378.88;178.80;;;4.20;99.90;;;;;;5030496;28;20567;-78
2023/03/02 05:56:09;;;;;;;345.42;164.13;;;4.20;99.90;;;;;;5032348;28;20482;-79
2023/03/02 05:58:37;;;;;;;269.88;126.15;;;4.20;99.90;;;;;;5030843;28;20060;-78
2023/03/02 06:01:09;;;;;;;244.77;115.40;;;4.30;99.90;;;;;;5030559;28;20045;-79
2023/03/02 06:03:38;;;;;;;229.82;111.28;;;4.30;99.90;;;;;;5027233;28;20049;-75
2023/03/02 06:06:06;;;;;;;255.27;115.32;;;4.30;99.90;;;;;;5028666;28;20041;-77
2023/03/02 06:08:33;;;;;;;236.90;111.82;;;4.30;99.90;;;;;;5028858;28;20464;-76
2023/03/02 06:11:01;;;;;;;239.32;115.28;;;4.30;99.90;;;;;;5043803;28;20076;-77
2023/03/02 06:13:28;;;;;;;222.32;107.35;;;4.40;99.90;;;;;;5028776;28;20058;-75
2023/03/02 06:15:56;;;;;;;250.55;115.82;;;4.40;99.90;;;;;;5028663;28;20052;-78
2023/03/02 06:18:24;;;;;;;252.32;122.43;;;4.50;99.90;;;;;;5031990;28;20075;-77
2023/03/02 06:20:53;;;;;;;266.00;118.40;;;4.60;99.90;;;;;;5034254;28;20041;-76
2023/03/02 06:23:20;;;;;;;223.45;104.45;;;4.50;99.90;;;;;;5032183;28;20048;-77
2023/03/02 06:25:48;;;;;;;242.68;102.85;;;4.60;99.90;;;;;;5032882;28;20041;-77
2023/03/02 06:28:17;;;;;;;236.00;102.10;;;4.60;99.90;;;;;;5033403;28;20041;-75
2023/03/02 06:30:45;;;;;;;247.75;102.90;;;4.60;99.90;;;;;;5033233;28;20049;-76
2023/03/02 06:33:12;;;;;;;231.38;104.85;;;4.60;99.90;;;;;;5046835;28;20061;-77
2023/03/02 06:35:40;;;;;;;231.88;105.82;;;4.60;99.90;;;;;;5034880;28;20048;-77
2023/03/02 06:38:08;;;;;;;241.38;105.82;;;4.60;99.90;;;;;;5033283;28;20040;-77
2023/03/02 06:40:36;;;;;;;240.73;102.63;;;4.60;99.90;;;;;;5032521;28;20128;-77
2023/03/02 06:43:03;;;;;;;265.15;110.70;;;4.70;99.90;;;;;;5032216;28;20152;-77
2023/03/02 06:45:32;;;;;;;254.15;103.35;;;4.70;99.90;;;;;;5031902;28;20462;-75
2023/03/02 06:48:00;;;;;;;243.85;105.35;;;4.70;99.90;;;;;;5032443;28;20030;-76
2023/03/02 06:50:28;;;;;;;260.10;105.78;;;4.70;99.90;;;;;;5032312;28;20087;-78
2023/03/02 06:52:56;;;;;;;253.15;112.03;;;4.80;99.90;;;;;;5031341;28;20140;-77
2023/03/02 06:55:25;;;;;;;317.42;144.55;;;4.80;99.90;;;;;;5032392;28;20037;-77
2023/03/02 06:57:53;;;;;;;347.48;154.80;;;4.90;99.90;;;;;;5029782;28;20095;-76
2023/03/02 07:00:26;;;;;;;315.33;147.15;;;5.00;99.90;;;;;;5031966;28;20052;-76
2023/03/02 07:02:54;;;;;;;321.20;145.00;;;5.10;99.90;;;;;;5031811;28;20041;-76
2023/03/02 07:05:23;;;;;;;349.83;155.35;;;5.20;99.90;;;;;;5031540;28;20042;-77
2023/03/02 07:07:51;;;;;;;327.92;152.77;;;5.30;99.90;;;;;;5031644;28;20108;-77
2023/03/02 07:10:18;;;;;;;329.17;149.45;;;5.40;99.90;;;;;;5031948;28;20122;-74
2023/03/02 07:12:47;;;;;;;336.50;143.52;;;5.50;1.00;;;;;;5032087;28;20473;-77
2023/03/02 07:15:15;;;;;;;354.48;147.15;;;5.50;1.00;;;;;;5030081;28;20141;-77
2023/03/02 07:17:44;;;;;;;316.70;143.32;;;5.50;99.90;;;;;;5031739;28;20674;-78
2023/03/02 07:20:13;;;;;;;315.67;141.60;;;5.50;1.00;;;;;;5032509;28;20034;-77
2023/03/02 07:22:41;;;;;;;314.83;143.43;;;5.60;1.00;;;;;;5032009;28;20064;-77
2023/03/02 07:25:10;;;;;;;331.77;143.85;;;5.60;99.90;;;;;;5032393;28;20052;-76
2023/03/02 07:27:37;;;;;;;324.77;143.82;;;5.50;99.90;;;;;;5031206;28;20133;-78
2023/03/02 07:30:08;;;;;;;331.50;142.05;;;5.50;99.90;;;;;;5030513;28;20041;-76
2023/03/02 07:32:35;;;;;;;339.30;143.02;;;5.60;99.90;;;;;;5030847;28;20132;-76
2023/03/02 07:35:03;;;;;;;346.65;147.77;;;5.70;99.90;;;;;;5030461;28;20132;-76
2023/03/02 07:37:30;;;;;;;343.45;148.98;;;5.60;1.00;;;;;;5032307;28;20069;-78
2023/03/02 07:39:58;;;;;;;342.83;149.00;;;5.60;1.00;;;;;;5031451;28;20567;-76
2023/03/02 07:42:25;;;;;;;366.08;151.50;;;5.50;1.00;;;;;;5031302;28;20065;-75
2023/03/02 07:44:57;;;;;;;354.00;150.75;;;5.50;1.00;;;;;;5029245;28;20107;-76
2023/03/02 07:47:25;;;;;;;361.42;148.38;;;5.50;99.90;;;;;;5029473;28;20053;-75
2023/03/02 07:49:54;;;;;;;363.92;152.60;;;5.60;1.00;;;;;;5031614;28;20052;-76
2023/03/02 07:52:21;;;;;;;385.50;151.23;;;5.70;1.00;;;;;;5027777;28;20128;-75
2023/03/02 07:54:49;;;;;;;366.15;153.45;;;5.80;1.00;;;;;;5029411;28;20512;-78
2023/03/02 07:57:17;;;;;;;358.17;149.23;;;5.80;99.90;;;;;;5030490;28;20389;-77
2023/03/02 07:59:44;;;;;;;371.20;153.18;;;5.90;99.90;;;;;;5031182;28;20117;-77
2023/03/02 08:02:14;;;;;;;366.35;149.32;;;6.00;99.90;;;;;;5029727;28;20072;-75
2023/03/02 08:04:43;;;;;;;359.73;152.00;;;6.00;1.00;;;;;;5029836;28;20137;-75
2023/03/02 08:07:11;;;;;;;357.38;149.95;;;6.00;1.00;;;;;;5040827;28;20046;-76
2023/03/02 08:09:38;;;;;;;369.08;154.25;;;6.00;1.00;;;;;;5035089;28;20063;-77
2023/03/02 08:12:07;;;;;;;373.00;153.02;;;6.00;1.00;;;;;;5031221;28;20075;-75
2023/03/02 08:14:35;;;;;;;365.60;150.45;;;6.10;94.50;;;;;;5030913;28;20061;-75
2023/03/02 08:17:05;;;;;;;358.55;153.60;;;6.20;1.00;;;;;;5030514;28;20512;-75
2023/03/02 08:19:33;;;;;;;366.08;153.90;;;6.30;1.00;;;;;;5029275;28;20053;-75
2023/03/02 08:22:02;;;;;;;370.38;158.18;;;6.40;1.00;;;;;;5030663;28;20041;-76
2023/03/02 08:24:30;;;;;;;353.08;153.27;;;6.50;1.00;;;;;;5030696;28;20045;-75
2023/03/02 08:27:00;;;;;;;359.98;150.15;;;6.60;1.00;;;;;;5030839;28;20755;-77
2023/03/02 08:29:27;;;;;;;369.13;158.40;;;6.70;1.00;;;;;;5045753;28;20050;-77
2023/03/02 08:31:55;;;;;;;386.13;156.63;;;6.70;99.90;;;;;;5030435;28;20037;-78
2023/03/02 08:34:22;;;;;;;398.40;158.80;;;6.60;1.00;;;;;;5030426;28;20430;-77
2023/03/02 08:36:50;;;;;;;411.40;166.57;;;6.60;45.20;;;;;;5029181;28;20041;-76
2023/03/02 08:39:20;;;;;;;428.67;168.80;;;6.60;99.90;;;;;;5030020;28;20517;-76
2023/03/02 08:41:50;;;;;;;383.90;154.23;;;6.60;1.00;;;;;;5030302;28;20048;-76
2023/03/02 08:44:19;;;;;;;391.98;153.02;;;6.70;1.00;;;;;;5030344;28;20041;-79
2023/03/02 08:46:47;;;;;;;395.98;153.75;;;6.80;1.00;;;;;;5030342;28;20103;-78
2023/03/02 08:49:15;;;;;;;382.23;146.57;;;7.00;99.90;;;;;;5030577;28;20044;-77
2023/03/02 08:51:44;;;;;;;374.88;146.57;;;7.00;1.00;;;;;;5028897;28;20267;-75
2023/03/02 08:54:12;;;;;;;365.77;141.93;;;7.00;1.00;;;;;;5028987;28;20130;-77
2023/03/02 08:56:43;;;;;;;351.10;136.02;;;7.10;1.00;;;;;;5029463;28;20064;-75
2023/03/02 08:59:13;;;;;;;393.90;143.05;;;7.10;99.90;;;;;;5030436;28;20049;-77
2023/03/02 09:01:41;;;;;;;400.25;140.20;;;7.30;1.00;;;;;;5029703;28;20493;-77
2023/03/02 09:04:10;;;;;;;393.42;135.30;;;7.50;99.90;;;;;;5028855;28;20094;-76
2023/03/02 09:06:39;;;;;;;366.52;127.93;;;7.80;99.90;;;;;;5029615;28;20057;-76
2023/03/02 09:09:09;;;;;;;351.58;124.75;;;8.10;1.00;;;;;;5030225;28;20045;-76
2023/03/02 09:11:37;;;;;;;340.80;123.75;;;8.40;99.90;;;;;;5028354;28;20107;-75
2023/03/02 09:14:07;;;;;;;337.25;122.43;;;8.60;99.90;;;;;;5029545;28;20045;-76
2023/03/02 09:16:37;;;;;;;295.08;113.60;;;8.90;1.00;;;;;;5027275;28;20111;-75
2023/03/02 09:19:05;;;;;;;280.92;111.78;;;9.10;1.00;;;;;;5029275;28;20056;-75
2023/03/02 09:21:32;;;;;;;272.25;106.63;;;9.20;1.00;;;;;;5029617;28;20048;-77
2023/03/02 09:24:00;;;;;;;264.55;103.20;;;9.10;1.00;;;;;;5030352;28;20071;-76
2023/03/02 09:26:28;;;;;;;262.95;104.15;;;9.10;1.00;;;;;;5030171;28;20153;-76
2023/03/02 09:28:56;;;;;;;257.40;105.07;;;8.80;1.00;;;;;;5028267;28;20052;-77
2023/03/02 09:31:25;;;;;;;255.10;105.00;;;8.70;1.00;;;;;;5030093;28;20107;-76
2023/03/02 09:33:55;;;;;;;241.00;100.68;;;8.50;1.00;;;;;;5033100;28;20044;-78
2023/03/02 09:36:25;;;;;;;236.38;102.82;;;8.60;1.00;;;;;;5032739;28;20045;-75
2023/03/02 09:38:53;;;;;;;235.00;98.38;;;8.70;1.00;;;;;;5041514;28;20060;-77
2023/03/02 09:41:56;;;;;;;231.35;100.38;;;8.80;1.00;;;;;;5046313;28;20076;-76
2023/03/02 09:44:41;;;;;;;210.95;87.35;;;8.90;1.00;;;;;;5030110;28;20501;-77
2023/03/02 09:47:18;;;;;;;214.55;90.65;;;8.90;1.00;;;;;;5027117;28;20147;-77
2023/03/02 09:49:59;;;;;;;208.65;89.30;;;8.90;1.00;;;;;;5029672;28;20110;-76
2023/03/02 09:52:31;;;;;;;215.10;90.53;;;9.00;1.00;;;;;;5027991;28;20046;-76
2023/03/02 09:55:02;;;;;;;208.95;87.85;;;9.20;99.90;;;;;;5029061;28;20107;-76
2023/03/02 09:57:34;;;;;;;195.60;83.40;;;9.40;1.00;;;;;;5028208;28;20076;-76
2023/03/02 10:00:06;;;;;;;205.35;88.38;;;9.70;99.90;;;;;;5028817;28;20037;-76
2023/03/02 10:02:47;;;;;;;205.38;88.25;;;9.80;99.90;;;;;;5028019;28;20119;-77
2023/03/02 10:05:26;;;;;;;193.23;86.03;;;10.00;99.90;;;;;;5027850;28;20434;-88
2023/03/02 10:07:54;;;;;;;210.40;89.75;;;10.00;99.90;;;;;;5027571;28;20045;-77
2023/03/02 10:10:29;;;;;;;188.23;83.85;;;10.10;99.90;;;;;;5028031;28;20404;-77
2023/03/02 10:13:14;;;;;;;192.40;84.68;;;9.90;99.90;;;;;;5026602;28;20836;-75
2023/03/02 10:15:50;;;;;;;183.35;81.63;;;9.50;99.90;;;;;;5027477;28;20519;-75
2023/03/02 10:18:24;;;;;;;182.75;85.10;;;9.00;1.00;;;;;;5028643;28;20489;-75
2023/03/02 10:20:56;;;;;;;202.73;86.82;;;8.40;1.00;;;;;;5028516;28;20042;-76
2023/03/02 10:23:36;;;;;;;188.32;80.88;;;8.00;1.00;;;;;;5028519;28;20041;-76
2023/03/02 10:26:15;;;;;;;182.55;80.15;;;8.10;1.00;;;;;;5028121;28;20136;-75
2023/03/02 10:28:48;;;;;;;177.98;81.90;;;7.90;1.00;;;;;;5028097;28;20187;-78
2023/03/02 10:31:26;;;;;;;173.90;78.43;;;8.20;99.90;;;;;;5027420;28;20037;-76
2023/03/02 10:33:56;;;;;;;176.80;80.88;;;8.60;94.60;;;;;;5029005;28;20134;-77
2023/03/02 10:36:27;;;;;;;178.23;76.65;;;8.90;1.00;;;;;;5029101;28;20124;-76
2023/03/02 10:38:56;;;;;;;173.95;77.22;;;8.80;1.00;;;;;;5029851;28;20080;-77
2023/03/02 10:41:29;;;;;;;173.45;78.20;;;8.70;1.00;;;;;;5027465;28;20041;-77
2023/03/02 10:44:00;;;;;;;169.55;74.88;;;8.60;1.00;;;;;;5028746;28;20111;-78
2023/03/02 10:46:40;;;;;;;181.10;79.72;;;8.90;1.00;;;;;;5026898;28;20568;-75
2023/03/02 10:49:25;;;;;;;176.45;77.25;;;9.10;1.00;;;;;;5028840;28;20489;-75
2023/03/02 10:51:58;;;;;;;191.27;79.50;;;9.30;99.90;;;;;;5028815;28;20468;-77
2023/03/02 10:54:28;;;;;;;194.88;78.32;;;9.40;99.90;;;;;;5028408;28;20053;-77
2023/03/02 10:56:59;;;;;;;195.07;85.88;;;9.20;99.90;;;;;;5028029;28;20046;-78
2023/03/02 10:59:42;;;;;;;189.13;82.60;;;9.10;99.90;;;;;;5027423;28;20140;-78
2023/03/02 11:02:20;;;;;;;189.00;78.75;;;8.90;99.90;;;;;;5028510;28;20042;-77
2023/03/02 11:04:53;;;;;;;191.93;78.15;;;8.90;1.00;;;;;;5030535;28;20044;-77
2023/03/02 11:07:24;;;;;;;170.00;75.60;;;9.00;1.00;;;;;;5032562;28;20049;-76
2023/03/02 11:10:00;;;;;;;184.48;76.47;;;9.20;99.90;;;;;;5032681;28;20065;-77
2023/03/02 11:12:29;;;;;;;167.43;74.57;;;9.30;99.90;;;;;;5030785;28;20049;-76
2023/03/02 11:15:21;;;;;;;169.15;70.80;;;9.30;99.90;;;;;;5033689;28;20041;-78
2023/03/02 11:17:51;;;;;;;172.10;75.50;;;9.40;99.90;;;;;;5032156;28;20037;-79
2023/03/02 11:20:26;;;;;;;181.63;78.20;;;9.60;99.90;;;;;;5048630;28;20417;-78
2023/03/02 11:23:05;;;;;;;181.95;78.85;;;9.60;99.90;;;;;;5030392;28;20048;-77
2023/03/02 11:25:38;;;;;;;184.50;80.18;;;9.70;99.90;;;;;;5046272;28;20068;-77
2023/03/02 11:28:12;;;;;;;185.27;80.43;;;9.50;99.90;;;;;;5031345;28;20099;-78
2023/03/02 11:30:45;;;;;;;180.55;77.50;;;9.50;99.90;;;;;;5047132;28;20520;-78
2023/03/02 11:33:19;;;;;;;182.00;75.57;;;9.50;99.90;;;;;;5030261;28;20176;-76
2023/03/02 11:35:53;;;;;;;177.85;74.50;;;9.20;99.90;;;;;;5030132;28;20601;-75
2023/03/02 11:38:25;;;;;;;188.55;77.72;;;8.80;99.90;;;;;;5030378;28;20049;-75
2023/03/02 11:40:58;;;;;;;212.80;87.70;;;8.30;1.00;;;;;;5032731;28;20497;-75
2023/03/02 11:43:25;;;;;;;206.13;79.97;;;8.30;1.00;;;;;;5032457;28;20045;-74
2023/03/02 11:45:58;;;;;;;190.40;83.60;;;8.20;1.00;;;;;;5031922;28;20497;-78
2023/03/02 11:48:30;;;;;;;198.07;78.90;;;8.40;1.00;;;;;;5030158;28;20087;-76
2023/03/02 11:51:02;;;;;;;207.57;80.75;;;8.40;1.00;;;;;;5029652;28;20248;-76
2023/03/02 11:53:34;;;;;;;227.52;85.55;;;8.40;1.00;;;;;;5031327;28;20612;-77
2023/03/02 11:56:01;;;;;;;229.10;86.78;;;8.50;1.00;;;;;;5031019;28;20046;-76
2023/03/02 11:58:30;;;;;;;212.32;81.28;;;8.60;1.00;;;;;;5031914;28;20570;-77
2023/03/02 12:00:58;;;;;;;225.75;84.93;;;8.70;1.00;;;;;;5030912;28;20045;-77
2023/03/02 12:03:38;;;;;;;214.63;85.07;;;8.70;1.00;;;;;;5029915;28;20095;-76
2023/03/02 12:06:25;;;;;;;237.38;87.18;;;8.80;1.00;;;;;;5029546;28;20501;-76
2023/03/02 12:08:54;;;;;;;222.82;84.68;;;8.70;1.00;;;;;;5031062;28;20056;-75
2023/03/02 12:11:37;;;;;;;201.43;83.82;;;8.90;1.00;;;;;;5031743;28;20489;-74
2023/03/02 12:14:24;;;;;;;187.02;81.53;;;9.00;1.00;;;;;;5035611;28;20121;-78
2023/03/02 12:17:03;;;;;;;175.05;79.72;;;9.00;1.00;;;;;;5032480;28;20136;-78
2023/03/02 12:19:40;;;;;;;175.18;81.93;;;9.20;1.00;;;;;;5031085;28;20064;-78
2023/03/02 12:22:12;;;;;;;178.73;77.63;;;9.40;99.90;;;;;;5031847;28;20541;-77
2023/03/02 12:24:41;;;;;;;175.15;79.40;;;9.50;99.90;;;;;;5047574;28;20417;-76
2023/03/02 12:27:25;;;;;;;176.18;79.18;;;9.60;99.90;;;;;;5028841;28;20057;-78
2023/03/02 12:29:57;;;;;;;152.75;74.00;;;9.50;99.90;;;;;;5031265;28;20041;-77
2023/03/02 12:32:27;;;;;;;171.63;76.22;;;9.20;99.90;;;;;;5029874;28;20045;-77
2023/03/02 12:34:59;;;;;;;159.80;75.22;;;8.50;1.00;;;;;;5031241;28;20522;-76
2023/03/02 12:37:31;;;;;;;164.88;79.22;;;8.40;1.00;;;;;;5030334;28;20033;-75
2023/03/02 12:40:32;;;;;;;161.35;78.38;;;8.40;1.00;;;;;;5028919;28;20128;-77